Time;durP1;ratioP1;P1;durP2;ratioP2;P2;SDS_P1;SDS_P2;PMS_P1;PMS_P2;Temp;Humidity;BMP_temperature;BMP_pressure;BME280_temperature;BME280_humidity;BME280_pressure;Samples;Min_cycle;Max_cycle;Signal;HPM_P1;HPM_P2
2023/11/21 00:00:12;;;;;;;2.65;0.77;;;17.80;99.60;;;;;;5031925;28;20044;-45
2023/11/21 00:02:40;;;;;;;1.85;0.85;;;17.80;99.60;;;;;;5032031;28;20018;-45
2023/11/21 00:05:09;;;;;;;1.73;1.00;;;17.80;99.60;;;;;;5032080;28;20075;-45
2023/11/21 00:07:36;;;;;;;1.90;1.02;;;17.80;99.60;;;;;;5032721;28;20032;-43
2023/11/21 00:10:02;;;;;;;1.35;0.70;;;17.80;99.90;;;;;;5032145;28;20442;-45
2023/11/21 00:12:29;;;;;;;1.70;0.90;;;17.80;99.60;;;;;;5031780;28;20053;-45
2023/11/21 00:14:55;;;;;;;1.33;1.00;;;17.70;99.60;;;;;;5032900;28;20383;-43
2023/11/21 00:17:20;;;;;;;1.85;0.80;;;17.80;99.70;;;;;;5032515;28;20463;-44
2023/11/21 00:19:46;;;;;;;1.58;0.70;;;17.70;99.60;;;;;;5031191;28;20030;-44
2023/11/21 00:22:11;;;;;;;1.88;0.93;;;17.70;99.60;;;;;;5031637;28;20487;-43
2023/11/21 00:24:37;;;;;;;1.30;0.77;;;17.70;99.60;;;;;;5031789;28;20026;-44
2023/11/21 00:27:03;;;;;;;2.05;0.80;;;17.70;99.60;;;;;;5032065;28;20021;-45
2023/11/21 00:29:29;;;;;;;2.63;0.70;;;17.70;99.60;;;;;;5031997;28;20026;-45
2023/11/21 00:31:55;;;;;;;1.50;0.80;;;17.70;99.60;;;;;;5031667;28;20033;-45
2023/11/21 00:34:20;;;;;;;1.60;0.80;;;17.70;99.70;;;;;;5032472;28;20613;-45
2023/11/21 00:36:46;;;;;;;2.15;0.88;;;17.70;99.70;;;;;;5031281;28;20112;-43
2023/11/21 00:39:12;;;;;;;2.20;0.80;;;17.70;99.70;;;;;;5031436;28;20034;-45
2023/11/21 00:41:37;;;;;;;1.67;0.88;;;17.70;99.70;;;;;;5032441;28;20391;-44
2023/11/21 00:44:03;;;;;;;2.47;0.95;;;17.70;99.70;;;;;;5031877;28;20057;-45
2023/11/21 00:46:29;;;;;;;2.55;0.82;;;17.70;99.70;;;;;;5031799;28;20028;-44
2023/11/21 00:48:55;;;;;;;1.60;0.90;;;17.70;99.70;;;;;;5031076;28;20018;-43
2023/11/21 00:51:22;;;;;;;1.58;0.60;;;17.70;99.70;;;;;;5031927;28;20029;-45
2023/11/21 00:53:48;;;;;;;2.72;1.00;;;17.70;99.70;;;;;;5031374;28;20079;-45
2023/11/21 00:56:14;;;;;;;1.67;0.80;;;17.60;99.70;;;;;;5031203;28;20029;-45
2023/11/21 00:58:46;;;;;;;1.42;0.80;;;17.70;99.70;;;;;;5031275;28;20368;-44
2023/11/21 01:01:12;;;;;;;2.03;0.70;;;17.60;99.70;;;;;;5031910;28;20032;-43
2023/11/21 01:03:38;;;;;;;1.55;0.70;;;17.70;99.70;;;;;;5036761;28;20021;-45
2023/11/21 01:06:07;;;;;;;1.85;0.90;;;17.60;99.70;;;;;;5052140;28;20021;-45
2023/11/21 01:08:33;;;;;;;1.35;0.80;;;17.60;99.70;;;;;;5035559;28;20654;-45
2023/11/21 01:10:59;;;;;;;1.95;0.98;;;17.60;99.70;;;;;;5035516;28;20032;-43
2023/11/21 01:13:28;;;;;;;1.20;0.60;;;17.60;99.70;;;;;;5035267;28;20368;-44
2023/11/21 01:15:54;;;;;;;1.10;0.57;;;17.70;99.70;;;;;;5034964;28;20146;-45
2023/11/21 01:18:20;;;;;;;1.42;0.88;;;17.60;99.70;;;;;;5035054;28;20531;-45
2023/11/21 01:20:46;;;;;;;1.40;0.77;;;17.60;99.70;;;;;;5035778;28;20025;-44
2023/11/21 01:23:13;;;;;;;1.52;0.57;;;17.60;99.70;;;;;;5036173;28;20386;-45
2023/11/21 01:25:38;;;;;;;1.80;0.68;;;17.60;99.80;;;;;;5035571;28;20075;-43
2023/11/21 01:28:04;;;;;;;1.60;0.80;;;17.60;99.70;;;;;;5036113;28;20440;-44
2023/11/21 01:30:30;;;;;;;1.20;0.60;;;17.60;99.80;;;;;;5035349;28;20116;-44
2023/11/21 01:32:56;;;;;;;1.25;0.80;;;17.60;99.80;;;;;;5034942;28;20108;-45
2023/11/21 01:35:22;;;;;;;1.67;0.63;;;17.60;99.80;;;;;;5035020;28;20171;-45
2023/11/21 01:37:48;;;;;;;1.50;0.60;;;17.60;99.80;;;;;;5034483;28;20551;-45
2023/11/21 01:40:13;;;;;;;1.92;0.90;;;17.60;99.80;;;;;;5034510;28;20496;-44
2023/11/21 01:42:40;;;;;;;1.70;0.70;;;17.60;99.80;;;;;;5034669;28;20075;-45
2023/11/21 01:45:07;;;;;;;1.75;0.80;;;17.60;99.80;;;;;;5034555;28;20064;-44
2023/11/21 01:47:35;;;;;;;2.10;0.90;;;17.60;99.80;;;;;;5034957;28;20021;-44
2023/11/21 01:50:04;;;;;;;1.25;0.68;;;17.60;99.80;;;;;;5034454;28;20029;-45
2023/11/21 01:52:30;;;;;;;1.38;0.55;;;17.60;99.80;;;;;;5035000;28;20475;-45
2023/11/21 01:54:58;;;;;;;0.90;0.70;;;17.60;99.80;;;;;;5034667;28;20025;-45
2023/11/21 01:57:24;;;;;;;1.05;0.65;;;17.60;99.80;;;;;;5050362;28;20048;-45
2023/11/21 01:59:54;;;;;;;1.10;0.55;;;17.60;99.80;;;;;;5034025;28;20518;-45
2023/11/21 02:02:20;;;;;;;1.73;0.80;;;17.60;99.80;;;;;;5035320;28;20037;-45
2023/11/21 02:04:46;;;;;;;0.93;0.45;;;17.60;99.80;;;;;;5034530;28;20379;-45
2023/11/21 02:07:11;;;;;;;1.73;0.70;;;17.60;99.80;;;;;;5033990;28;20026;-44
2023/11/21 02:09:42;;;;;;;3.05;0.73;;;17.60;99.80;;;;;;5034242;28;20466;-45
2023/11/21 02:12:10;;;;;;;1.42;0.47;;;17.50;99.80;;;;;;5034799;28;20025;-44
2023/11/21 02:14:36;;;;;;;0.77;0.40;;;17.50;99.80;;;;;;5033330;28;20049;-45
2023/11/21 02:17:03;;;;;;;1.15;0.57;;;17.60;99.80;;;;;;5034918;28;20037;-44
2023/11/21 02:19:30;;;;;;;2.13;0.80;;;17.50;99.80;;;;;;5034329;28;20033;-45
2023/11/21 02:22:06;;;;;;;1.05;0.55;;;17.50;99.80;;;;;;5034488;28;20028;-45
2023/11/21 02:24:32;;;;;;;1.48;0.60;;;17.60;99.80;;;;;;5035044;28;20395;-45
2023/11/21 02:26:58;;;;;;;1.02;0.50;;;17.50;99.80;;;;;;5032385;28;20032;-44
2023/11/21 02:29:28;;;;;;;1.20;0.70;;;17.50;99.80;;;;;;5034245;28;20026;-44
2023/11/21 02:31:54;;;;;;;2.60;0.80;;;17.50;99.80;;;;;;5034190;28;20022;-45
2023/11/21 02:34:21;;;;;;;1.58;0.60;;;17.50;99.80;;;;;;5035040;28;20483;-45
2023/11/21 02:36:49;;;;;;;1.95;0.70;;;17.50;99.80;;;;;;5033542;28;20026;-44
2023/11/21 02:39:15;;;;;;;1.02;0.60;;;17.50;99.80;;;;;;5034090;28;20490;-44
2023/11/21 02:41:41;;;;;;;2.10;0.80;;;17.50;99.80;;;;;;5033783;28;20025;-45
2023/11/21 02:44:06;;;;;;;1.00;0.50;;;17.50;99.80;;;;;;5034326;28;20479;-45
2023/11/21 02:46:36;;;;;;;1.42;0.63;;;17.50;99.80;;;;;;5034213;28;20040;-45
2023/11/21 02:49:03;;;;;;;1.85;0.65;;;17.50;99.80;;;;;;5033848;28;20029;-45
2023/11/21 02:51:29;;;;;;;1.25;0.60;;;17.50;99.80;;;;;;5034161;28;20542;-43
2023/11/21 02:54:00;;;;;;;1.23;0.60;;;17.50;99.80;;;;;;5034927;28;20491;-44
2023/11/21 02:56:28;;;;;;;2.78;0.70;;;17.50;99.80;;;;;;5034775;28;20029;-43
2023/11/21 02:58:56;;;;;;;1.67;0.70;;;17.50;99.80;;;;;;5032993;28;20083;-45
2023/11/21 03:01:23;;;;;;;1.35;0.60;;;17.50;99.80;;;;;;5033606;28;20550;-44
2023/11/21 03:03:50;;;;;;;1.63;0.70;;;17.50;99.80;;;;;;5033491;28;20108;-44
2023/11/21 03:06:17;;;;;;;2.03;0.80;;;17.50;99.90;;;;;;5033684;28;20051;-44
2023/11/21 03:08:43;;;;;;;0.80;0.50;;;17.50;99.90;;;;;;5032903;28;20028;-45
2023/11/21 03:11:08;;;;;;;2.20;0.70;;;17.50;99.90;;;;;;5033086;28;20033;-45
2023/11/21 03:13:34;;;;;;;1.70;0.80;;;17.50;99.80;;;;;;5033242;28;20489;-44
2023/11/21 03:16:00;;;;;;;1.95;0.85;;;17.50;99.80;;;;;;5032795;28;20550;-43
2023/11/21 03:18:25;;;;;;;1.63;0.50;;;17.50;99.80;;;;;;5032648;28;20032;-45
2023/11/21 03:20:53;;;;;;;1.35;0.60;;;17.50;99.90;;;;;;5032909;28;20373;-45
2023/11/21 03:23:18;;;;;;;1.02;0.60;;;17.50;99.80;;;;;;5032660;28;20084;-45
2023/11/21 03:25:44;;;;;;;0.73;0.43;;;17.50;99.80;;;;;;5033170;28;20021;-44
2023/11/21 03:28:10;;;;;;;2.88;0.60;;;17.50;99.80;;;;;;5032917;28;20499;-44
2023/11/21 03:30:35;;;;;;;1.10;0.40;;;17.50;99.90;;;;;;5032779;28;20100;-45
2023/11/21 03:33:01;;;;;;;1.35;0.50;;;17.50;99.80;;;;;;5032507;28;20513;-45
2023/11/21 03:35:27;;;;;;;0.82;0.50;;;17.40;99.80;;;;;;5032427;28;20037;-45
2023/11/21 03:37:53;;;;;;;1.45;0.70;;;17.50;99.90;;;;;;5032318;28;20025;-45
2023/11/21 03:40:21;;;;;;;1.08;0.57;;;17.40;99.80;;;;;;5032704;28;20442;-44
2023/11/21 03:42:47;;;;;;;1.13;0.50;;;17.40;99.80;;;;;;5032835;28;20021;-45
2023/11/21 03:45:14;;;;;;;0.65;0.40;;;17.40;99.80;;;;;;5034038;28;20486;-45
2023/11/21 03:47:43;;;;;;;0.93;0.55;;;17.40;99.80;;;;;;5034677;28;20025;-45
2023/11/21 03:50:09;;;;;;;0.60;0.40;;;17.40;99.80;;;;;;5032854;28;20103;-44
2023/11/21 03:52:35;;;;;;;1.38;0.50;;;17.40;99.80;;;;;;5032199;28;20475;-45
2023/11/21 03:55:01;;;;;;;1.45;0.40;;;17.40;99.80;;;;;;5032764;28;20120;-45
2023/11/21 03:57:30;;;;;;;1.90;0.52;;;17.40;99.80;;;;;;5031904;28;20383;-42
2023/11/21 03:59:55;;;;;;;1.15;0.50;;;17.40;99.80;;;;;;5032012;28;20037;-44
2023/11/21 04:02:21;;;;;;;0.95;0.50;;;17.40;99.80;;;;;;5032432;28;20034;-44
2023/11/21 04:04:47;;;;;;;0.88;0.22;;;17.40;99.80;;;;;;5031893;28;20026;-43
2023/11/21 04:07:13;;;;;;;1.15;0.50;;;17.40;99.80;;;;;;5031823;28;20029;-44
2023/11/21 04:09:39;;;;;;;0.60;0.40;;;17.40;99.80;;;;;;5031798;28;20025;-44
2023/11/21 04:12:05;;;;;;;1.80;0.50;;;17.40;99.80;;;;;;5031999;28;20032;-45
2023/11/21 04:14:32;;;;;;;1.08;0.60;;;17.40;99.80;;;;;;5033482;28;20387;-44
2023/11/21 04:16:58;;;;;;;0.77;0.40;;;17.40;99.80;;;;;;5032686;28;20028;-44
2023/11/21 04:19:23;;;;;;;0.98;0.50;;;17.40;99.80;;;;;;5031768;28;20108;-45
2023/11/21 04:21:49;;;;;;;0.85;0.40;;;17.40;99.80;;;;;;5032365;28;20029;-44
2023/11/21 04:24:15;;;;;;;1.17;0.60;;;17.40;99.90;;;;;;5032854;28;20044;-45
2023/11/21 04:26:41;;;;;;;1.00;0.40;;;17.40;99.80;;;;;;5031918;28;20110;-45
2023/11/21 04:29:07;;;;;;;1.13;0.50;;;17.40;99.90;;;;;;5031397;28;20432;-44
2023/11/21 04:31:32;;;;;;;0.95;0.40;;;17.40;99.90;;;;;;5031525;28;20033;-45
2023/11/21 04:33:58;;;;;;;1.58;0.60;;;17.40;99.90;;;;;;5031379;28;20021;-44
2023/11/21 04:36:24;;;;;;;0.60;0.30;;;17.40;99.90;;;;;;5031354;28;20026;-45
2023/11/21 04:38:49;;;;;;;0.80;0.40;;;17.40;99.80;;;;;;5031772;28;20091;-44
2023/11/21 04:41:15;;;;;;;0.85;0.30;;;17.40;99.90;;;;;;5031302;28;20029;-44
2023/11/21 04:43:42;;;;;;;1.25;0.50;;;17.40;99.90;;;;;;5031426;28;20480;-45
2023/11/21 04:46:09;;;;;;;1.05;0.30;;;17.40;99.80;;;;;;5031578;28;20028;-45
2023/11/21 04:48:35;;;;;;;0.80;0.40;;;17.40;99.80;;;;;;5031379;28;20029;-45
2023/11/21 04:51:00;;;;;;;1.95;0.30;;;17.40;99.90;;;;;;5031310;28;20029;-45
2023/11/21 04:53:26;;;;;;;0.55;0.40;;;17.40;99.90;;;;;;5031243;28;20403;-44
2023/11/21 04:55:51;;;;;;;0.32;0.22;;;17.40;99.90;;;;;;5031147;28;20045;-45
2023/11/21 04:58:17;;;;;;;0.50;0.38;;;17.40;99.90;;;;;;5031257;28;20049;-44
2023/11/21 05:00:43;;;;;;;1.63;0.40;;;17.40;99.90;;;;;;5031454;28;20100;-45
2023/11/21 05:03:09;;;;;;;1.02;0.50;;;17.40;99.90;;;;;;5031098;28;20032;-45
2023/11/21 05:05:35;;;;;;;0.90;0.52;;;17.40;99.90;;;;;;5032128;28;20025;-44
2023/11/21 05:08:01;;;;;;;0.57;0.30;;;17.40;99.90;;;;;;5030989;28;20048;-44
2023/11/21 05:10:27;;;;;;;0.88;0.40;;;17.40;99.90;;;;;;5031260;28;20048;-44
2023/11/21 05:12:52;;;;;;;0.52;0.38;;;17.40;99.90;;;;;;5031344;28;20030;-44
2023/11/21 05:15:18;;;;;;;0.63;0.50;;;17.40;99.80;;;;;;5031026;28;20378;-45
2023/11/21 05:17:45;;;;;;;1.15;0.60;;;17.40;99.90;;;;;;5031402;28;20025;-44
2023/11/21 05:20:13;;;;;;;0.90;0.40;;;17.40;99.90;;;;;;5031696;28;20084;-45
2023/11/21 05:22:39;;;;;;;1.75;0.50;;;17.40;99.90;;;;;;5031726;28;20036;-44
2023/11/21 05:25:07;;;;;;;0.82;0.47;;;17.40;99.80;;;;;;5031374;28;20097;-45
2023/11/21 05:27:33;;;;;;;0.60;0.30;;;17.40;99.90;;;;;;5031307;28;20105;-45
2023/11/21 05:29:58;;;;;;;1.27;0.30;;;17.40;99.90;;;;;;5031244;28;20100;-43
2023/11/21 05:32:25;;;;;;;0.90;0.50;;;17.40;99.90;;;;;;5030898;28;20057;-44
2023/11/21 05:34:51;;;;;;;0.98;0.55;;;17.40;99.90;;;;;;5030948;28;20030;-45
2023/11/21 05:37:17;;;;;;;0.70;0.50;;;17.40;99.90;;;;;;5031581;28;20468;-45
2023/11/21 05:39:43;;;;;;;1.00;0.50;;;17.30;99.80;;;;;;5030597;28;20029;-44
2023/11/21 05:42:10;;;;;;;1.50;0.60;;;17.40;99.90;;;;;;5031052;28;20084;-44
2023/11/21 05:44:37;;;;;;;0.70;0.45;;;17.40;99.90;;;;;;5031218;28;20025;-44
2023/11/21 05:47:03;;;;;;;0.90;0.32;;;17.30;99.80;;;;;;5031553;28;20036;-45
2023/11/21 05:49:29;;;;;;;0.73;0.40;;;17.40;99.90;;;;;;5034479;28;20067;-45
2023/11/21 05:51:56;;;;;;;1.40;0.43;;;17.30;99.90;;;;;;5034571;28;20049;-44
2023/11/21 05:54:23;;;;;;;1.02;0.40;;;17.30;99.80;;;;;;5034424;28;20033;-45
2023/11/21 05:56:49;;;;;;;0.40;0.25;;;17.30;99.80;;;;;;5035140;28;20383;-45
2023/11/21 05:59:15;;;;;;;0.75;0.40;;;17.30;99.80;;;;;;5034305;28;20021;-44
2023/11/21 06:01:40;;;;;;;0.80;0.40;;;17.30;99.80;;;;;;5034157;28;20036;-45
2023/11/21 06:04:10;;;;;;;0.75;0.28;;;17.30;99.80;;;;;;5034996;28;20025;-45
2023/11/21 06:06:36;;;;;;;0.80;0.30;;;17.30;99.80;;;;;;5034325;28;20029;-44
2023/11/21 06:09:02;;;;;;;0.47;0.30;;;17.30;99.80;;;;;;5032811;28;20031;-44
2023/11/21 06:11:27;;;;;;;0.80;0.60;;;17.30;99.80;;;;;;5035135;28;20033;-44
2023/11/21 06:13:53;;;;;;;0.85;0.43;;;17.30;99.80;;;;;;5034049;28;20075;-44
2023/11/21 06:16:19;;;;;;;0.82;0.40;;;17.30;99.80;;;;;;5032492;28;20056;-44
2023/11/21 06:18:47;;;;;;;0.80;0.47;;;17.30;99.80;;;;;;5033803;28;20029;-44
2023/11/21 06:21:13;;;;;;;0.70;0.40;;;17.30;99.80;;;;;;5033783;28;20125;-44
2023/11/21 06:23:41;;;;;;;0.80;0.50;;;17.30;99.80;;;;;;5034080;28;20483;-43
2023/11/21 06:26:06;;;;;;;0.50;0.30;;;17.30;99.80;;;;;;5033635;28;20030;-44
2023/11/21 06:28:32;;;;;;;0.60;0.30;;;17.30;99.80;;;;;;5034590;28;20037;-44
2023/11/21 06:30:58;;;;;;;0.70;0.30;;;17.30;99.80;;;;;;5034576;28;20025;-45
2023/11/21 06:33:27;;;;;;;0.50;0.30;;;17.30;99.80;;;;;;5033286;28;20025;-44
2023/11/21 06:35:53;;;;;;;0.43;0.30;;;17.30;99.80;;;;;;5033671;28;20025;-44
2023/11/21 06:38:19;;;;;;;0.50;0.35;;;17.30;99.80;;;;;;5034452;28;20033;-45
2023/11/21 06:40:45;;;;;;;0.60;0.30;;;17.30;99.80;;;;;;5033727;28;20028;-42
2023/11/21 06:43:11;;;;;;;0.88;0.50;;;17.30;99.80;;;;;;5033609;28;20026;-45
2023/11/21 06:45:36;;;;;;;0.68;0.40;;;17.30;99.80;;;;;;5033389;28;20025;-44
2023/11/21 06:48:02;;;;;;;1.15;0.50;;;17.30;99.80;;;;;;5033221;28;20380;-45
2023/11/21 06:50:28;;;;;;;0.90;0.30;;;17.30;99.80;;;;;;5034299;28;20025;-44
2023/11/21 06:52:53;;;;;;;1.38;0.50;;;17.30;99.80;;;;;;5033262;28;20029;-44
2023/11/21 06:55:19;;;;;;;1.33;0.63;;;17.30;99.80;;;;;;5034483;28;20029;-44
2023/11/21 06:57:44;;;;;;;1.08;0.50;;;17.30;99.80;;;;;;5033139;28;20124;-45
2023/11/21 07:00:11;;;;;;;1.13;0.52;;;17.30;99.80;;;;;;5032839;28;20030;-44
2023/11/21 07:02:37;;;;;;;0.80;0.40;;;17.30;99.80;;;;;;5033476;28;20052;-43
2023/11/21 07:05:03;;;;;;;0.63;0.40;;;17.30;99.80;;;;;;5033294;28;20061;-44
2023/11/21 07:07:28;;;;;;;1.80;0.60;;;17.30;99.80;;;;;;5033039;28;20025;-45
2023/11/21 07:09:54;;;;;;;0.80;0.40;;;17.30;99.80;;;;;;5034252;28;20025;-44
2023/11/21 07:12:23;;;;;;;1.20;0.50;;;17.30;99.90;;;;;;5033170;28;20455;-45
2023/11/21 07:14:49;;;;;;;0.32;0.30;;;17.30;99.80;;;;;;5032880;28;20455;-44
2023/11/21 07:17:14;;;;;;;0.82;0.38;;;17.30;99.80;;;;;;5032870;28;20021;-44
2023/11/21 07:19:41;;;;;;;0.57;0.40;;;17.30;99.80;;;;;;5032909;28;20550;-45
2023/11/21 07:22:08;;;;;;;0.52;0.40;;;17.30;99.80;;;;;;5032835;28;20017;-45
2023/11/21 07:24:34;;;;;;;0.52;0.32;;;17.30;99.80;;;;;;5032574;28;20022;-45
2023/11/21 07:27:00;;;;;;;1.02;0.47;;;17.30;99.90;;;;;;5033332;28;20025;-45
2023/11/21 07:29:26;;;;;;;0.50;0.40;;;17.30;99.80;;;;;;5033271;28;20029;-45
2023/11/21 07:31:53;;;;;;;0.50;0.40;;;17.30;99.80;;;;;;5032584;28;20053;-44
2023/11/21 07:34:21;;;;;;;0.55;0.30;;;17.30;99.90;;;;;;5033395;28;20441;-44
2023/11/21 07:36:47;;;;;;;0.70;0.40;;;17.30;99.90;;;;;;5032411;28;20391;-45
2023/11/21 07:39:12;;;;;;;0.65;0.38;;;17.30;99.80;;;;;;5033118;28;20037;-44
2023/11/21 07:41:44;;;;;;;0.93;0.30;;;17.30;99.90;;;;;;5032427;28;20029;-45
2023/11/21 07:44:11;;;;;;;0.40;0.30;;;17.30;99.90;;;;;;5032873;28;20479;-43
2023/11/21 07:46:37;;;;;;;0.60;0.30;;;17.30;99.90;;;;;;5034561;28;20028;-44
2023/11/21 07:49:03;;;;;;;0.52;0.30;;;17.30;99.90;;;;;;5033686;28;20097;-45
2023/11/21 07:51:29;;;;;;;0.38;0.30;;;17.30;99.90;;;;;;5032606;28;20018;-44
2023/11/21 07:53:55;;;;;;;0.80;0.40;;;17.30;99.90;;;;;;5032044;28;20025;-45
2023/11/21 07:56:20;;;;;;;1.15;0.50;;;17.30;99.90;;;;;;5032298;28;20637;-45
2023/11/21 07:58:46;;;;;;;0.88;0.50;;;17.30;99.90;;;;;;5032262;28;20252;-44
2023/11/21 08:01:12;;;;;;;0.80;0.50;;;17.30;99.90;;;;;;5032246;28;20045;-44
2023/11/21 08:03:37;;;;;;;0.60;0.40;;;17.30;99.80;;;;;;5032034;28;20409;-44
2023/11/21 08:06:05;;;;;;;1.75;0.52;;;17.30;99.80;;;;;;5032122;28;20050;-45
2023/11/21 08:08:32;;;;;;;0.73;0.55;;;17.30;99.80;;;;;;5032321;28;20697;-45
2023/11/21 08:10:57;;;;;;;0.60;0.40;;;17.30;99.80;;;;;;5031835;28;20033;-45
2023/11/21 08:13:23;;;;;;;1.13;0.50;;;17.30;99.80;;;;;;5031846;28;20544;-45
2023/11/21 08:15:49;;;;;;;0.75;0.35;;;17.30;99.80;;;;;;5032922;28;20036;-45
2023/11/21 08:18:17;;;;;;;0.85;0.47;;;17.30;99.80;;;;;;5031944;28;20052;-45
2023/11/21 08:20:43;;;;;;;0.73;0.47;;;17.30;99.80;;;;;;5019619;28;20045;-45
2023/11/21 08:23:08;;;;;;;0.88;0.40;;;17.30;99.80;;;;;;5031521;28;20108;-43
2023/11/21 08:25:34;;;;;;;0.70;0.47;;;17.40;99.80;;;;;;5031927;28;20105;-45
2023/11/21 08:28:01;;;;;;;0.73;0.47;;;17.30;99.80;;;;;;5031994;28;20017;-45
2023/11/21 08:30:29;;;;;;;0.57;0.30;;;17.40;99.80;;;;;;5031873;28;20049;-43
2023/11/21 08:32:57;;;;;;;3.13;0.68;;;17.40;99.80;;;;;;5032295;28;20387;-44
2023/11/21 08:35:26;;;;;;;1.52;0.60;;;17.40;99.80;;;;;;5032249;28;20022;-45
2023/11/21 08:37:52;;;;;;;1.58;0.50;;;17.40;99.80;;;;;;5032075;28;20541;-45
2023/11/21 08:40:20;;;;;;;0.88;0.40;;;17.40;99.90;;;;;;5033101;28;20021;-44
2023/11/21 08:42:45;;;;;;;0.82;0.43;;;17.40;99.80;;;;;;5032281;28;20033;-44
2023/11/21 08:45:12;;;;;;;0.60;0.40;;;17.40;99.80;;;;;;5032220;28;20552;-45
2023/11/21 08:47:39;;;;;;;0.75;0.40;;;17.40;99.80;;;;;;5031240;28;20097;-45
2023/11/21 08:50:07;;;;;;;0.82;0.43;;;17.40;99.80;;;;;;5031472;28;20037;-45
2023/11/21 08:52:34;;;;;;;0.93;0.52;;;17.40;99.80;;;;;;5031280;28;20053;-44
2023/11/21 08:55:02;;;;;;;0.90;0.50;;;17.40;99.90;;;;;;5030303;28;20033;-44
2023/11/21 08:57:29;;;;;;;1.10;0.50;;;17.40;99.80;;;;;;5032070;28;20042;-44
2023/11/21 08:59:57;;;;;;;0.52;0.45;;;17.40;99.80;;;;;;5033127;28;20582;-45
2023/11/21 09:02:23;;;;;;;0.40;0.30;;;17.40;99.80;;;;;;5031259;28;20030;-43
2023/11/21 09:04:50;;;;;;;0.98;0.50;;;17.40;99.80;;;;;;5031310;28;20097;-45
2023/11/21 09:07:16;;;;;;;0.85;0.43;;;17.40;99.70;;;;;;5030990;28;20017;-44
2023/11/21 09:09:41;;;;;;;0.73;0.47;;;17.40;99.70;;;;;;5031676;28;20082;-43
2023/11/21 09:12:07;;;;;;;0.80;0.52;;;17.40;99.70;;;;;;5031004;28;20025;-45
2023/11/21 09:14:33;;;;;;;0.70;0.40;;;17.40;99.70;;;;;;5031045;28;20057;-45
2023/11/21 09:16:59;;;;;;;0.43;0.40;;;17.50;99.70;;;;;;5030883;28;20018;-45
2023/11/21 09:19:24;;;;;;;0.43;0.40;;;17.50;99.70;;;;;;5031013;28;20431;-45
2023/11/21 09:21:50;;;;;;;1.10;0.40;;;17.50;99.70;;;;;;5031291;28;20033;-45
2023/11/21 09:24:16;;;;;;;0.40;0.32;;;17.50;99.70;;;;;;5034899;28;20026;-45
2023/11/21 09:26:42;;;;;;;2.05;0.30;;;17.50;99.70;;;;;;5035676;28;20025;-43
2023/11/21 09:29:08;;;;;;;1.00;0.50;;;17.50;99.70;;;;;;5033421;28;20018;-45
2023/11/21 09:31:33;;;;;;;0.70;0.55;;;17.50;99.70;;;;;;5036119;28;20025;-44
2023/11/21 09:33:59;;;;;;;0.45;0.43;;;17.50;99.60;;;;;;5035815;28;20026;-44
2023/11/21 09:36:27;;;;;;;0.45;0.30;;;17.50;99.60;;;;;;5034987;28;20513;-44
2023/11/21 09:38:55;;;;;;;1.10;0.40;;;17.50;99.60;;;;;;5034705;28;20025;-44
2023/11/21 09:41:39;;;;;;;0.70;0.30;;;17.50;99.60;;;;;;5036289;28;20490;-44
2023/11/21 09:44:10;;;;;;;0.52;0.38;;;17.50;99.60;;;;;;5034988;28;20025;-45
2023/11/21 09:46:39;;;;;;;0.75;0.40;;;17.50;99.60;;;;;;5036088;28;20053;-44
2023/11/21 09:49:11;;;;;;;0.45;0.40;;;17.50;99.60;;;;;;5034510;28;20048;-45
2023/11/21 09:51:42;;;;;;;0.55;0.30;;;17.50;99.60;;;;;;5034736;28;20041;-45
2023/11/21 09:54:10;;;;;;;0.60;0.47;;;17.50;99.60;;;;;;5034696;28;20037;-45
2023/11/21 09:56:37;;;;;;;0.85;0.50;;;17.50;99.50;;;;;;5035004;28;20116;-44
2023/11/21 09:59:08;;;;;;;1.00;0.40;;;17.60;99.60;;;;;;5034848;28;20068;-45
2023/11/21 10:01:37;;;;;;;0.47;0.30;;;17.50;99.50;;;;;;5034272;28;20021;-45
2023/11/21 10:04:02;;;;;;;0.47;0.30;;;17.60;99.60;;;;;;5034788;28;20075;-44
2023/11/21 10:06:30;;;;;;;0.52;0.40;;;17.60;99.60;;;;;;5034224;28;20025;-45
2023/11/21 10:08:57;;;;;;;0.40;0.40;;;17.60;99.90;;;;;;5034001;28;20037;-45
2023/11/21 10:11:25;;;;;;;0.55;0.30;;;17.60;99.50;;;;;;5034123;28;20029;-44
2023/11/21 10:13:57;;;;;;;0.75;0.40;;;17.60;99.50;;;;;;5034090;28;20026;-44
2023/11/21 10:16:25;;;;;;;0.50;0.30;;;17.60;99.50;;;;;;5034974;28;20065;-45
2023/11/21 10:18:55;;;;;;;0.80;0.50;;;17.60;99.50;;;;;;5033881;28;20087;-43
2023/11/21 10:21:21;;;;;;;0.60;0.40;;;17.60;99.50;;;;;;5033876;28;20380;-44
2023/11/21 10:23:47;;;;;;;0.70;0.47;;;17.60;99.50;;;;;;5034005;28;20042;-45
2023/11/21 10:26:16;;;;;;;1.05;0.50;;;17.60;99.50;;;;;;5033644;28;20013;-44
2023/11/21 10:29:05;;;;;;;2.05;0.40;;;17.60;99.40;;;;;;5033751;28;20022;-43
2023/11/21 10:31:32;;;;;;;1.15;0.50;;;17.60;99.40;;;;;;5033829;28;20049;-45
2023/11/21 10:34:12;;;;;;;0.57;0.40;;;17.60;99.40;;;;;;5033074;28;20030;-45
2023/11/21 10:36:37;;;;;;;0.93;0.60;;;17.60;99.40;;;;;;5034015;28;20029;-45
2023/11/21 10:39:03;;;;;;;0.90;0.50;;;17.60;99.40;;;;;;5033789;28;20083;-44
2023/11/21 10:41:29;;;;;;;0.98;0.60;;;17.60;99.40;;;;;;5033701;28;20475;-45
2023/11/21 10:43:56;;;;;;;0.70;0.55;;;17.60;99.40;;;;;;5033759;28;20018;-45
2023/11/21 10:46:23;;;;;;;0.63;0.40;;;17.60;99.40;;;;;;5035026;28;20022;-45
2023/11/21 10:48:56;;;;;;;0.52;0.43;;;17.60;99.40;;;;;;5034687;28;20092;-45
2023/11/21 10:51:24;;;;;;;0.80;0.50;;;17.60;99.40;;;;;;5033315;28;20026;-45
2023/11/21 10:53:51;;;;;;;0.82;0.52;;;17.60;99.40;;;;;;5034756;28;20022;-45
2023/11/21 10:56:19;;;;;;;0.90;0.60;;;17.60;99.40;;;;;;5033339;28;20032;-45
2023/11/21 10:58:45;;;;;;;0.80;0.50;;;17.60;99.40;;;;;;5033417;28;20022;-45
2023/11/21 11:01:14;;;;;;;0.63;0.40;;;17.60;99.40;;;;;;5034079;28;20052;-44
2023/11/21 11:03:41;;;;;;;0.60;0.43;;;17.60;99.40;;;;;;5033680;28;20025;-44
2023/11/21 11:06:11;;;;;;;0.43;0.40;;;17.60;99.30;;;;;;5032765;28;20538;-45
2023/11/21 11:08:40;;;;;;;1.00;0.55;;;17.60;99.30;;;;;;5032707;28;20399;-45
2023/11/21 11:11:07;;;;;;;0.57;0.47;;;17.70;99.40;;;;;;5033099;28;20421;-44
2023/11/21 11:13:33;;;;;;;0.45;0.43;;;17.60;99.30;;;;;;5032788;28;20064;-45
2023/11/21 11:16:01;;;;;;;0.80;0.60;;;17.60;99.30;;;;;;5034652;28;20120;-45
2023/11/21 11:18:30;;;;;;;0.85;0.57;;;17.60;99.30;;;;;;5032754;28;20025;-45
2023/11/21 11:21:22;;;;;;;0.82;0.55;;;17.60;99.30;;;;;;5033208;28;20021;-45
2023/11/21 11:24:04;;;;;;;0.60;0.40;;;17.60;99.30;;;;;;5011772;28;20037;-44
2023/11/21 11:26:47;;;;;;;0.93;0.68;;;17.70;99.40;;;;;;5034082;28;20425;-44
2023/11/21 11:29:26;;;;;;;2.40;2.10;;;17.70;99.70;;;;;;5032821;28;20040;-43
2023/11/21 11:32:20;;;;;;;2.10;1.88;;;17.70;99.30;;;;;;5032782;28;20030;-45
2023/11/21 11:35:01;;;;;;;2.53;1.98;;;17.70;99.30;;;;;;5032709;28;20025;-44
2023/11/21 11:37:27;;;;;;;2.35;1.80;;;17.60;99.30;;;;;;5032589;28;20036;-44
2023/11/21 11:39:54;;;;;;;2.45;1.73;;;17.60;99.30;;;;;;5032328;28;20402;-44
2023/11/21 11:42:23;;;;;;;2.08;1.80;;;17.70;99.30;;;;;;5032559;28;20415;-45
2023/11/21 11:44:54;;;;;;;2.00;1.80;;;17.70;99.30;;;;;;5032189;28;20495;-44
2023/11/21 11:47:33;;;;;;;2.25;1.80;;;17.70;99.30;;;;;;5033876;28;20032;-44
2023/11/21 11:50:21;;;;;;;1.98;1.70;;;17.70;99.30;;;;;;5032444;28;20025;-45
2023/11/21 11:52:51;;;;;;;2.00;1.80;;;17.70;99.30;;;;;;5032362;28;20029;-45
2023/11/21 11:55:19;;;;;;;2.35;1.73;;;17.70;99.30;;;;;;5032210;28;20104;-45
2023/11/21 11:57:46;;;;;;;2.08;1.88;;;17.70;99.30;;;;;;5032073;28;20033;-44
2023/11/21 12:00:41;;;;;;;1.58;1.48;;;17.70;99.30;;;;;;5031958;28;20479;-44
2023/11/21 12:03:08;;;;;;;;;;;17.70;99.30;;;;;;5023600;28;20033;-43
2023/11/21 12:05:38;;;;;;;1.67;1.35;;;17.70;99.20;;;;;;5032027;28;19909;-45
2023/11/21 12:08:06;;;;;;;1.80;1.38;;;17.70;99.30;;;;;;5031718;28;20447;-45
2023/11/21 12:10:34;;;;;;;1.83;1.35;;;17.70;99.30;;;;;;5031896;28;20025;-44
2023/11/21 12:13:07;;;;;;;1.80;1.35;;;17.70;99.20;;;;;;5031862;28;20479;-45
2023/11/21 12:15:34;;;;;;;1.63;1.33;;;17.70;99.20;;;;;;5031687;28;20072;-45
2023/11/21 12:18:00;;;;;;;1.30;1.08;;;17.80;99.30;;;;;;5031638;28;20033;-45
2023/11/21 12:20:28;;;;;;;1.52;1.30;;;17.70;99.20;;;;;;5031612;28;20029;-45
2023/11/21 12:22:55;;;;;;;1.55;1.23;;;17.70;99.20;;;;;;5032146;28;20105;-44
2023/11/21 12:25:29;;;;;;;1.20;1.10;;;17.70;99.20;;;;;;5031521;28;20052;-45
2023/11/21 12:27:57;;;;;;;1.65;1.35;;;17.80;99.30;;;;;;5032059;28;20013;-44
2023/11/21 12:30:35;;;;;;;1.10;1.00;;;17.80;99.20;;;;;;5032528;28;20068;-45
2023/11/21 12:33:02;;;;;;;1.33;1.08;;;17.80;99.20;;;;;;5031617;28;20056;-45
2023/11/21 12:35:30;;;;;;;2.85;1.30;;;17.80;99.20;;;;;;5032407;28;20025;-45
2023/11/21 12:37:59;;;;;;;1.63;1.23;;;17.80;99.20;;;;;;5031311;28;20029;-45
2023/11/21 12:40:25;;;;;;;1.75;1.30;;;17.80;99.20;;;;;;5031664;28;20056;-45
2023/11/21 12:42:58;;;;;;;1.48;1.10;;;17.80;99.20;;;;;;5031587;28;20076;-45
2023/11/21 12:45:27;;;;;;;1.38;1.13;;;17.80;99.20;;;;;;5031477;28;20026;-45
2023/11/21 12:48:13;;;;;;;1.40;1.20;;;17.80;99.20;;;;;;5031689;28;20434;-44